Time;durP1;ratioP1;P1;durP2;ratioP2;P2;SDS_P1;SDS_P2;PMS_P1;PMS_P2;Temp;Humidity;BMP_temperature;BMP_pressure;BME280_temperature;BME280_humidity;BME280_pressure;Samples;Min_cycle;Max_cycle;Signal;HPM_P1;HPM_P2
2022/04/21 00:00:42;;;;;;;20.20;18.40;;;;;;;;;;5086812;28;24426;-50
2022/04/21 00:03:08;;;;;;;20.43;18.53;;;;;;;;;;5086945;28;24394;-49
2022/04/21 00:05:33;;;;;;;20.00;18.30;;;;;;;;;;5087170;28;24481;-50
2022/04/21 00:07:59;;;;;;;21.30;19.40;;;;;;;;;;5087023;28;24963;-50
2022/04/21 00:10:25;;;;;;;20.80;18.90;;;;;;;;;;5087234;28;24993;-49
2022/04/21 00:12:51;;;;;;;21.58;19.67;;;;;;;;;;5091027;28;24482;-50
2022/04/21 00:15:17;;;;;;;20.90;19.00;;;;;;;;;;5091057;28;24389;-50
2022/04/21 00:17:42;;;;;;;20.40;18.60;;;;;;;;;;5090748;28;24382;-50
2022/04/21 00:20:08;;;;;;;20.50;18.70;;;;;;;;;;5091058;28;24418;-49
2022/04/21 00:25:16;;;;;;;19.58;17.77;;;;;;;;;;5091147;28;24473;-49
2022/04/21 00:27:43;;;;;;;17.83;16.33;;;;;;;;;;5090980;28;24477;-49
2022/04/21 00:30:09;;;;;;;14.17;13.00;;;;;;;;;;5090551;28;24508;-50
2022/04/21 00:32:34;;;;;;;11.60;10.60;;;;;;;;;;5091107;28;24471;-50
2022/04/21 00:35:00;;;;;;;10.93;10.03;;;;;;;;;;5090782;28;24394;-50
2022/04/21 00:37:25;;;;;;;9.40;8.60;;;;;;;;;;5090866;28;24382;-49
2022/04/21 00:39:50;;;;;;;9.88;8.88;;;;;;;;;;5090761;28;24500;-49
2022/04/21 00:42:16;;;;;;;9.40;8.60;;;;;;;;;;5090372;28;24402;-50
2022/04/21 00:44:41;;;;;;;8.85;8.05;;;;;;;;;;5090369;28;24382;-50
2022/04/21 00:47:07;;;;;;;9.50;8.70;;;;;;;;;;5090644;28;24549;-49
2022/04/21 00:49:32;;;;;;;9.15;8.35;;;;;;;;;;5090663;28;24398;-49
2022/04/21 00:51:58;;;;;;;9.63;8.80;;;;;;;;;;5090267;28;24802;-49
2022/04/21 00:54:23;;;;;;;9.20;8.30;;;;;;;;;;5090656;28;24438;-49
2022/04/21 00:56:49;;;;;;;9.60;8.70;;;;;;;;;;5090319;28;24387;-49
2022/04/21 00:59:14;;;;;;;8.63;7.82;;;;;;;;;;5090047;28;24515;-48
2022/04/21 01:04:24;;;;;;;9.20;8.40;;;;;;;;;;5090404;28;24431;-50
2022/04/21 01:06:53;;;;;;;9.40;8.63;;;;;;;;;;5090218;28;24394;-50
2022/04/21 01:09:18;;;;;;;9.25;8.40;;;;;;;;;;5090136;28;24459;-50
2022/04/21 01:11:43;;;;;;;9.88;8.98;;;;;;;;;;5089631;28;24422;-50
2022/04/21 01:14:09;;;;;;;10.00;9.10;;;;;;;;;;5089777;28;24394;-50
2022/04/21 01:16:34;;;;;;;9.83;8.93;;;;;;;;;;5090095;28;24389;-51
2022/04/21 01:18:59;;;;;;;10.23;9.23;;;;;;;;;;5089768;28;24474;-50
2022/04/21 01:21:24;;;;;;;9.50;8.60;;;;;;;;;;5089683;28;24543;-49
2022/04/21 01:23:49;;;;;;;9.10;8.30;;;;;;;;;;5077952;28;24493;-50
2022/04/21 01:26:16;;;;;;;9.95;9.05;;;;;;;;;;5069386;28;24504;-50
2022/04/21 01:28:41;;;;;;;10.05;9.20;;;;;;;;;;5069352;28;24418;-51
2022/04/21 01:31:06;;;;;;;9.87;9.07;;;;;;;;;;5069064;28;24399;-51
2022/04/21 01:33:31;;;;;;;10.50;9.60;;;;;;;;;;5069395;28;24390;-50
2022/04/21 01:35:56;;;;;;;10.57;9.65;;;;;;;;;;5068960;28;24413;-51
2022/04/21 01:41:11;;;;;;;10.77;9.77;;;;;;;;;;5069792;28;24452;-50
2022/04/21 01:43:37;;;;;;;11.10;10.10;;;;;;;;;;5068972;28;24391;-50
2022/04/21 01:46:03;;;;;;;11.70;10.70;;;;;;;;;;5068986;28;24410;-50
2022/04/21 01:48:28;;;;;;;12.90;10.77;;;;;;;;;;5069373;28;24402;-50
2022/04/21 01:50:54;;;;;;;11.93;10.82;;;;;;;;;;5068840;28;24917;-50
2022/04/21 01:53:19;;;;;;;11.95;10.85;;;;;;;;;;5068772;28;24435;-50
2022/04/21 01:55:44;;;;;;;12.50;11.40;;;;;;;;;;5068707;28;24443;-50
2022/04/21 01:58:09;;;;;;;11.97;10.97;;;;;;;;;;5068926;28;24391;-50
2022/04/21 02:00:34;;;;;;;12.30;11.20;;;;;;;;;;5068544;28;24913;-51
2022/04/21 02:03:00;;;;;;;13.13;11.90;;;;;;;;;;5068724;28;24773;-49
2022/04/21 02:05:25;;;;;;;13.20;12.05;;;;;;;;;;5068555;28;24478;-50
2022/04/21 02:07:50;;;;;;;12.90;11.70;;;;;;;;;;5068553;28;24478;-51
2022/04/21 02:10:16;;;;;;;12.43;11.30;;;;;;;;;;5068349;28;24468;-51
2022/04/21 02:12:42;;;;;;;13.10;11.90;;;;;;;;;;5068567;28;24510;-50
2022/04/21 02:15:07;;;;;;;13.63;12.17;;;;;;;;;;5068846;28;24474;-51
2022/04/21 02:17:33;;;;;;;14.07;12.67;;;;;;;;;;5068724;28;25000;-50
2022/04/21 02:19:59;;;;;;;12.40;11.20;;;;;;;;;;5068649;28;24429;-50
2022/04/21 02:22:24;;;;;;;13.40;12.10;;;;;;;;;;5068131;28;25103;-50
2022/04/21 02:24:50;;;;;;;12.85;11.65;;;;;;;;;;5088413;28;24781;-50
2022/04/21 02:27:15;;;;;;;12.40;11.20;;;;;;;;;;5088490;28;24515;-50
2022/04/21 02:29:40;;;;;;;13.13;11.90;;;;;;;;;;5088318;28;24453;-50
2022/04/21 02:32:06;;;;;;;12.93;11.83;;;;;;;;;;5088259;28;24814;-50
2022/04/21 02:34:31;;;;;;;12.95;11.85;;;;;;;;;;5087705;28;24456;-49
2022/04/21 02:36:56;;;;;;;12.93;11.73;;;;;;;;;;5088399;28;24949;-50
2022/04/21 02:39:21;;;;;;;13.18;11.85;;;;;;;;;;5087809;28;24829;-50
2022/04/21 02:41:47;;;;;;;13.50;12.10;;;;;;;;;;5088828;28;24402;-50
2022/04/21 02:44:12;;;;;;;12.50;11.40;;;;;;;;;;5087932;28;24515;-50
2022/04/21 02:46:37;;;;;;;12.57;11.48;;;;;;;;;;5088165;28;24401;-50
2022/04/21 02:49:02;;;;;;;13.80;12.57;;;;;;;;;;5087721;28;24428;-49
2022/04/21 02:51:29;;;;;;;13.82;12.52;;;;;;;;;;5088251;28;24429;-50
2022/04/21 02:59:23;;;;;;;13.20;11.90;;;;;;;;;;5088068;28;24424;-51
2022/04/21 03:01:48;;;;;;;12.97;11.67;;;;;;;;;;5087914;28;24394;-51
2022/04/21 03:04:13;;;;;;;12.10;11.00;;;;;;;;;;5087659;28;24396;-51
2022/04/21 03:06:38;;;;;;;12.25;11.15;;;;;;;;;;5087464;28;24490;-51
2022/04/21 03:09:03;;;;;;;12.32;11.23;;;;;;;;;;5087805;28;24939;-51
2022/04/21 03:11:29;;;;;;;13.20;12.00;;;;;;;;;;5087931;28;24413;-51
2022/04/21 03:13:54;;;;;;;13.18;11.98;;;;;;;;;;5087290;28;24425;-51
2022/04/21 03:16:19;;;;;;;12.73;11.52;;;;;;;;;;5087771;28;24981;-51
2022/04/21 03:18:44;;;;;;;13.98;12.68;;;;;;;;;;5087162;28;24406;-49
2022/04/21 03:26:37;;;;;;;14.40;12.90;;;;;;;;;;5067353;28;24555;-51
2022/04/21 03:29:02;;;;;;;14.20;12.90;;;;;;;;;;5066895;28;24936;-52
2022/04/21 03:31:27;;;;;;;14.13;12.88;;;;;;;;;;5066995;28;24421;-51
2022/04/21 03:33:53;;;;;;;14.50;13.10;;;;;;;;;;5067229;28;24402;-51
2022/04/21 03:36:19;;;;;;;14.38;12.88;;;;;;;;;;5066931;28;24994;-51
2022/04/21 03:38:44;;;;;;;15.63;14.02;;;;;;;;;;5067341;28;24441;-49
2022/04/21 03:41:09;;;;;;;16.00;14.30;;;;;;;;;;5066898;28;24470;-50
2022/04/21 03:43:35;;;;;;;16.38;13.98;;;;;;;;;;5066871;28;24917;-52
2022/04/21 03:46:00;;;;;;;15.47;13.50;;;;;;;;;;5065580;28;24510;-51
2022/04/21 03:48:25;;;;;;;17.33;13.90;;;;;;;;;;5067258;28;24586;-50
2022/04/21 03:50:50;;;;;;;16.33;14.63;;;;;;;;;;5066769;28;24456;-51
2022/04/21 03:53:16;;;;;;;17.38;15.18;;;;;;;;;;5066837;28;24479;-51
2022/04/21 03:55:41;;;;;;;18.08;15.90;;;;;;;;;;5066962;28;24387;-51
2022/04/21 03:58:06;;;;;;;16.60;14.90;;;;;;;;;;5066417;28;24398;-51
2022/04/21 04:00:31;;;;;;;18.17;14.82;;;;;;;;;;5066611;28;24394;-52
2022/04/21 04:02:57;;;;;;;16.58;14.77;;;;;;;;;;5065131;28;24502;-51
2022/04/21 04:05:22;;;;;;;17.43;15.60;;;;;;;;;;5066963;28;24754;-52
2022/04/21 04:13:16;;;;;;;20.00;17.90;;;;;;;;;;5066449;28;24429;-51
2022/04/21 04:15:41;;;;;;;19.70;16.60;;;;;;;;;;5066884;28;24375;-51
2022/04/21 04:18:06;;;;;;;20.13;16.43;;;;;;;;;;5066726;28;24371;-51
2022/04/21 04:20:31;;;;;;;24.33;17.83;;;;;;;;;;5066666;28;24391;-52
2022/04/21 04:22:57;;;;;;;18.88;16.10;;;;;;;;;;5070536;28;24425;-52
2022/04/21 04:25:22;;;;;;;22.20;17.97;;;;;;;;;;5086450;28;24401;-51
2022/04/21 04:27:47;;;;;;;19.93;17.00;;;;;;;;;;5086507;28;24497;-51
2022/04/21 04:30:13;;;;;;;21.50;17.20;;;;;;;;;;5086118;28;24530;-50
2022/04/21 04:32:38;;;;;;;21.48;16.98;;;;;;;;;;5086660;28;24491;-52
2022/04/21 04:35:04;;;;;;;19.63;16.88;;;;;;;;;;5086637;28;24741;-52
2022/04/21 04:37:29;;;;;;;21.33;16.37;;;;;;;;;;5083810;28;24528;-52
2022/04/21 04:39:55;;;;;;;21.60;16.90;;;;;;;;;;5086087;28;24736;-51
2022/04/21 04:42:21;;;;;;;20.13;17.05;;;;;;;;;;5086325;28;24471;-51
2022/04/21 04:44:47;;;;;;;18.67;15.82;;;;;;;;;;5087074;28;24967;-51
2022/04/21 04:47:13;;;;;;;27.27;20.55;;;;;;;;;;5086512;28;24915;-51
2022/04/21 04:49:38;;;;;;;20.87;16.70;;;;;;;;;;5086517;28;24463;-51
2022/04/21 04:52:04;;;;;;;21.07;16.73;;;;;;;;;;5086368;28;24768;-51
2022/04/21 04:54:29;;;;;;;22.50;16.38;;;;;;;;;;5086232;28;25137;-51
2022/04/21 04:56:55;;;;;;;21.70;16.83;;;;;;;;;;5087163;28;24394;-51
2022/04/21 04:59:20;;;;;;;17.83;15.93;;;;;;;;;;5089958;28;24760;-51
2022/04/21 05:01:46;;;;;;;20.07;16.40;;;;;;;;;;5090393;28;25017;-51
2022/04/21 05:04:20;;;;;;;20.60;17.10;;;;;;;;;;5090214;28;24409;-51
2022/04/21 05:06:49;;;;;;;18.95;16.17;;;;;;;;;;5090365;28;24432;-51
2022/04/21 05:09:15;;;;;;;22.23;17.23;;;;;;;;;;5089575;28;24410;-51
2022/04/21 05:11:41;;;;;;;22.50;16.90;;;;;;;;;;5090313;28;24512;-51
2022/04/21 05:14:07;;;;;;;19.95;17.30;;;;;;;;;;5089809;28;24398;-50
2022/04/21 05:16:32;;;;;;;22.23;18.03;;;;;;;;;;5090205;28;24400;-51
2022/04/21 05:18:58;;;;;;;22.57;17.80;;;;;;;;;;5089986;28;24393;-52
2022/04/21 05:21:23;;;;;;;24.85;18.65;;;;;;;;;;5089572;28;24392;-51
2022/04/21 05:23:48;;;;;;;25.87;19.90;;;;;;;;;;5071463;28;24815;-52
2022/04/21 05:26:15;;;;;;;26.10;19.63;;;;;;;;;;5069602;28;24403;-51
2022/04/21 05:28:41;;;;;;;29.52;20.52;;;;;;;;;;5069408;28;24502;-50
2022/04/21 05:31:07;;;;;;;22.23;18.10;;;;;;;;;;5069465;28;24482;-51
2022/04/21 05:33:35;;;;;;;27.85;20.13;;;;;;;;;;5069216;28;24777;-51
2022/04/21 05:36:00;;;;;;;31.75;21.17;;;;;;;;;;5069687;28;24773;-51
2022/04/21 05:38:26;;;;;;;31.38;21.70;;;;;;;;;;5069100;28;24971;-51
2022/04/21 05:40:52;;;;;;;36.73;22.70;;;;;;;;;;5068845;28;24925;-52
2022/04/21 05:43:18;;;;;;;43.80;27.50;;;;;;;;;;5068926;28;25320;-51
2022/04/21 05:45:44;;;;;;;40.05;26.00;;;;;;;;;;5069309;28;24398;-51
2022/04/21 05:48:09;;;;;;;34.17;25.55;;;;;;;;;;5069295;28;24391;-52
2022/04/21 05:50:34;;;;;;;39.63;25.73;;;;;;;;;;5068995;28;24387;-52
2022/04/21 05:53:03;;;;;;;41.87;27.43;;;;;;;;;;5068575;28;24445;-51
2022/04/21 05:55:29;;;;;;;39.08;26.80;;;;;;;;;;5069040;28;24407;-51
2022/04/21 05:57:54;;;;;;;35.03;23.42;;;;;;;;;;5068906;28;24460;-51
2022/04/21 06:00:20;;;;;;;31.10;23.27;;;;;;;;;;5068741;28;24921;-49
2022/04/21 06:02:45;;;;;;;35.13;23.70;;;;;;;;;;5068909;28;24545;-49
2022/04/21 06:05:10;;;;;;;34.78;23.75;;;;;;;;;;5068678;28;25142;-49
2022/04/21 06:07:35;;;;;;;39.00;24.43;;;;;;;;;;5068701;28;25001;-49
2022/04/21 06:10:00;;;;;;;35.27;23.43;;;;;;;;;;5067710;28;24402;-49
2022/04/21 06:12:26;;;;;;;39.93;24.50;;;;;;;;;;5068314;28;24419;-49
2022/04/21 06:14:51;;;;;;;30.48;21.80;;;;;;;;;;5068623;28;24913;-52
2022/04/21 06:17:16;;;;;;;30.30;20.65;;;;;;;;;;5068686;28;24391;-52
2022/04/21 06:19:41;;;;;;;28.83;19.42;;;;;;;;;;5068159;28;24509;-49
2022/04/21 06:22:06;;;;;;;25.23;18.60;;;;;;;;;;5071710;28;24414;-49
2022/04/21 06:24:32;;;;;;;31.27;20.60;;;;;;;;;;5088624;28;24502;-50
2022/04/21 06:26:57;;;;;;;31.50;21.80;;;;;;;;;;5088611;28;24378;-49
2022/04/21 06:29:22;;;;;;;39.03;23.30;;;;;;;;;;5088323;28;24951;-49
2022/04/21 06:31:47;;;;;;;29.75;21.10;;;;;;;;;;5088344;28;24504;-49
2022/04/21 06:34:12;;;;;;;26.40;19.27;;;;;;;;;;5088243;28;24439;-50
2022/04/21 06:36:37;;;;;;;30.43;20.00;;;;;;;;;;5088216;28;24413;-49
2022/04/21 06:39:03;;;;;;;30.88;20.10;;;;;;;;;;5088193;28;24957;-49
2022/04/21 06:41:28;;;;;;;26.20;17.80;;;;;;;;;;5088063;28;24932;-49
2022/04/21 06:49:21;;;;;;;26.15;19.55;;;;;;;;;;5087779;28;24973;-49
2022/04/21 06:51:46;;;;;;;25.27;18.48;;;;;;;;;;5087919;28;24476;-49
2022/04/21 06:54:12;;;;;;;22.90;17.80;;;;;;;;;;5087819;28;25091;-50
2022/04/21 06:56:37;;;;;;;25.83;19.63;;;;;;;;;;5087937;28;24382;-50
2022/04/21 06:59:02;;;;;;;21.97;17.47;;;;;;;;;;5087985;28;25160;-52
2022/04/21 07:01:27;;;;;;;24.50;17.27;;;;;;;;;;5087708;28;24378;-50
2022/04/21 07:03:52;;;;;;;24.87;17.70;;;;;;;;;;5087707;28;25307;-51
2022/04/21 07:06:18;;;;;;;22.00;16.53;;;;;;;;;;5088006;28;24519;-52
2022/04/21 07:08:43;;;;;;;22.73;17.10;;;;;;;;;;5087918;28;24789;-52
2022/04/21 07:11:08;;;;;;;23.73;18.48;;;;;;;;;;5087650;28;24447;-51
2022/04/21 07:13:33;;;;;;;24.50;18.37;;;;;;;;;;5087630;28;24428;-51
2022/04/21 07:15:58;;;;;;;24.57;18.23;;;;;;;;;;5087867;28;24470;-51
2022/04/21 07:18:23;;;;;;;23.10;17.40;;;;;;;;;;5087540;28;24803;-51
2022/04/21 07:20:49;;;;;;;22.20;17.08;;;;;;;;;;5087533;28;24430;-52
2022/04/21 07:23:14;;;;;;;20.75;17.95;;;;;;;;;;5074383;28;24961;-52
2022/04/21 07:25:39;;;;;;;22.35;17.80;;;;;;;;;;5067453;28;24445;-52
2022/04/21 07:28:05;;;;;;;21.38;16.95;;;;;;;;;;5067092;28;24430;-51
2022/04/21 07:30:30;;;;;;;21.97;17.20;;;;;;;;;;5067057;28;25022;-52
2022/04/21 07:32:55;;;;;;;23.35;17.70;;;;;;;;;;5066961;28;24988;-51
2022/04/21 07:35:20;;;;;;;21.63;17.07;;;;;;;;;;5067030;28;24399;-51
2022/04/21 07:37:46;;;;;;;22.53;17.17;;;;;;;;;;5067142;28;24469;-51
2022/04/21 07:40:11;;;;;;;20.40;16.55;;;;;;;;;;5067066;28;24421;-51
2022/04/21 07:42:37;;;;;;;21.95;16.75;;;;;;;;;;5066944;28;24524;-52
2022/04/21 07:45:02;;;;;;;22.07;17.70;;;;;;;;;;5067283;28;24398;-51
2022/04/21 07:47:28;;;;;;;20.40;15.70;;;;;;;;;;5066732;28;24383;-51
2022/04/21 07:49:53;;;;;;;20.38;16.92;;;;;;;;;;5066873;28;24932;-51
2022/04/21 07:55:18;;;;;;;35.20;28.33;;;;;;;;;;5067122;28;24382;-52
2022/04/21 07:57:43;;;;;;;23.03;19.30;;;;;;;;;;5066924;28;24401;-51
2022/04/21 08:00:09;;;;;;;21.80;17.63;;;;;;;;;;5066524;28;24678;-57
2022/04/21 08:02:34;;;;;;;21.17;16.00;;;;;;;;;;5066875;28;24399;-51
2022/04/21 08:05:00;;;;;;;19.15;15.57;;;;;;;;;;5067015;28;24387;-50
2022/04/21 08:07:25;;;;;;;16.13;14.10;;;;;;;;;;5066747;28;24761;-51
2022/04/21 08:09:50;;;;;;;17.60;14.73;;;;;;;;;;5067129;28;24948;-51
2022/04/21 08:12:15;;;;;;;17.25;14.00;;;;;;;;;;5066510;28;24414;-50
2022/04/21 08:14:40;;;;;;;16.10;14.40;;;;;;;;;;5066859;28;24398;-50
2022/04/21 08:17:06;;;;;;;14.88;12.88;;;;;;;;;;5066651;28;24503;-51
2022/04/21 08:19:31;;;;;;;15.80;13.17;;;;;;;;;;5066129;28;24394;-50
2022/04/21 08:21:56;;;;;;;15.15;13.35;;;;;;;;;;5069251;28;24473;-51
2022/04/21 08:32:33;;;;;;;16.60;14.30;;;;;;;;;;5088532;28;24514;-51
2022/04/21 08:34:58;;;;;;;15.73;14.13;;;;;;;;;;5091215;28;24465;-50
2022/04/21 08:37:24;;;;;;;14.90;13.43;;;;;;;;;;5090773;28;24417;-51
2022/04/21 08:39:49;;;;;;;13.57;12.23;;;;;;;;;;5090765;28;24382;-52
2022/04/21 08:42:15;;;;;;;13.45;11.93;;;;;;;;;;5090188;28;24493;-52
2022/04/21 08:44:43;;;;;;;12.93;11.70;;;;;;;;;;5090806;28;24489;-51
2022/04/21 08:47:09;;;;;;;13.90;12.50;;;;;;;;;;5090732;28;24398;-51
2022/04/21 08:49:35;;;;;;;13.48;12.18;;;;;;;;;;5090789;28;24785;-51
2022/04/21 08:52:01;;;;;;;12.70;11.40;;;;;;;;;;5090322;28;24418;-51
2022/04/21 08:54:26;;;;;;;12.67;11.10;;;;;;;;;;5090149;28;24435;-52
2022/04/21 08:56:52;;;;;;;11.93;10.83;;;;;;;;;;5090600;28;24916;-51
2022/04/21 08:59:17;;;;;;;11.13;10.10;;;;;;;;;;5090201;28;24950;-52
2022/04/21 09:01:42;;;;;;;11.50;10.40;;;;;;;;;;5090373;28;24520;-51
2022/04/21 09:04:07;;;;;;;11.82;10.73;;;;;;;;;;5089950;28;24472;-51
2022/04/21 09:06:36;;;;;;;11.50;10.40;;;;;;;;;;5090350;28;24397;-51
2022/04/21 09:09:11;;;;;;;10.70;9.70;;;;;;;;;;5090271;28;24413;-51
2022/04/21 09:11:36;;;;;;;11.05;10.05;;;;;;;;;;5090129;28;24736;-52
2022/04/21 09:14:01;;;;;;;11.90;10.80;;;;;;;;;;5089968;28;25379;-52
2022/04/21 09:16:32;;;;;;;10.10;9.20;;;;;;;;;;5090059;28;24397;-51
2022/04/21 09:19:00;;;;;;;9.32;8.52;;;;;;;;;;5090014;28;24393;-51
2022/04/21 09:21:34;;;;;;;9.80;9.00;;;;;;;;;;5089598;28;24406;-51
2022/04/21 09:23:59;;;;;;;9.85;8.95;;;;;;;;;;5070544;28;24401;-52
2022/04/21 09:26:25;;;;;;;10.05;9.05;;;;;;;;;;5069532;28;24469;-51
2022/04/21 09:28:54;;;;;;;10.30;9.30;;;;;;;;;;5068878;28;24417;-51
2022/04/21 09:31:19;;;;;;;11.30;10.30;;;;;;;;;;5069209;28;24393;-52
2022/04/21 09:33:45;;;;;;;10.10;9.20;;;;;;;;;;5069278;28;24431;-51
2022/04/21 09:36:10;;;;;;;9.43;8.52;;;;;;;;;;5069381;28;24391;-52
2022/04/21 09:38:36;;;;;;;8.80;8.00;;;;;;;;;;5069469;28;24399;-52
2022/04/21 09:41:05;;;;;;;8.13;7.43;;;;;;;;;;5069245;28;24440;-51
2022/04/21 09:43:31;;;;;;;8.48;7.68;;;;;;;;;;5067224;28;24893;-51
2022/04/21 09:46:15;;;;;;;9.43;8.63;;;;;;;;;;5069440;28;24395;-52
2022/04/21 09:48:41;;;;;;;8.98;8.18;;;;;;;;;;5068834;28;25013;-51
2022/04/21 09:51:07;;;;;;;9.35;8.45;;;;;;;;;;5069199;28;24476;-51
2022/04/21 09:53:44;;;;;;;9.82;8.93;;;;;;;;;;5068721;28;24988;-51
2022/04/21 09:56:09;;;;;;;8.50;7.80;;;;;;;;;;5069250;28;24391;-51
2022/04/21 09:58:38;;;;;;;10.00;9.10;;;;;;;;;;5068721;28;24383;-52
2022/04/21 10:01:03;;;;;;;9.85;8.95;;;;;;;;;;5068398;28;24841;-51
2022/04/21 10:03:33;;;;;;;9.95;9.15;;;;;;;;;;5068742;28;24466;-51
2022/04/21 10:05:58;;;;;;;9.90;9.00;;;;;;;;;;5068558;28;24406;-52
2022/04/21 10:08:23;;;;;;;10.55;9.55;;;;;;;;;;5068781;28;24391;-52
2022/04/21 10:10:51;;;;;;;10.60;9.67;;;;;;;;;;5068570;28;24765;-51
2022/04/21 10:13:16;;;;;;;11.45;10.40;;;;;;;;;;5068396;28;24414;-51
2022/04/21 10:15:42;;;;;;;11.32;10.32;;;;;;;;;;5068520;28;24453;-51
2022/04/21 10:18:11;;;;;;;11.00;10.00;;;;;;;;;;5068339;28;24409;-52
2022/04/21 10:20:36;;;;;;;12.73;11.63;;;;;;;;;;5068077;28;24406;-51
2022/04/21 10:23:02;;;;;;;13.50;12.20;;;;;;;;;;5079769;28;24470;-51
2022/04/21 10:25:34;;;;;;;12.33;11.23;;;;;;;;;;5088462;28;24433;-51
2022/04/21 10:27:59;;;;;;;12.20;11.10;;;;;;;;;;5088456;28;24413;-51
2022/04/21 10:30:30;;;;;;;12.53;11.33;;;;;;;;;;5088993;28;24816;-51
2022/04/21 10:32:56;;;;;;;12.60;11.38;;;;;;;;;;5088158;28;24437;-51
2022/04/21 10:35:24;;;;;;;12.60;11.43;;;;;;;;;;5088408;28;25097;-52
2022/04/21 10:38:08;;;;;;;11.80;10.80;;;;;;;;;;5088348;28;25236;-52
2022/04/21 10:40:33;;;;;;;11.00;10.00;;;;;;;;;;5088335;28;24390;-51
2022/04/21 10:42:58;;;;;;;11.60;10.50;;;;;;;;;;5088363;28;24973;-51
2022/04/21 10:45:27;;;;;;;10.73;9.83;;;;;;;;;;5088439;28;24737;-51
2022/04/21 10:48:06;;;;;;;11.40;10.27;;;;;;;;;;5088018;28;24417;-51
2022/04/21 10:50:32;;;;;;;11.30;10.30;;;;;;;;;;5088155;28;24416;-50
2022/04/21 10:58:34;;;;;;;10.00;9.10;;;;;;;;;;5088172;28;24428;-51
2022/04/21 11:01:15;;;;;;;9.68;8.77;;;;;;;;;;5088158;28;24749;-51
2022/04/21 11:03:42;;;;;;;10.50;9.50;;;;;;;;;;5087425;28;24967;-51
2022/04/21 11:06:14;;;;;;;10.80;9.80;;;;;;;;;;5088279;28;24589;-51
2022/04/21 11:08:40;;;;;;;10.50;9.60;;;;;;;;;;5087741;28;24440;-51
2022/04/21 11:11:05;;;;;;;11.40;10.30;;;;;;;;;;5087807;28;25245;-51
2022/04/21 11:13:45;;;;;;;10.20;9.30;;;;;;;;;;5087561;28;24457;-50
2022/04/21 11:16:10;;;;;;;10.45;9.55;;;;;;;;;;5087446;28;24378;-51
2022/04/21 11:18:36;;;;;;;11.50;10.50;;;;;;;;;;5087648;28;24390;-51
2022/04/21 11:21:20;;;;;;;10.80;9.90;;;;;;;;;;5087549;28;24390;-51
2022/04/21 11:23:45;;;;;;;10.00;9.10;;;;;;;;;;5069998;28;24453;-51
2022/04/21 11:26:11;;;;;;;10.00;9.20;;;;;;;;;;5066964;28;24394;-52
2022/04/21 11:28:46;;;;;;;10.43;9.43;;;;;;;;;;5066974;28;24476;-51
2022/04/21 11:31:11;;;;;;;9.70;8.90;;;;;;;;;;5067332;28;24402;-50
2022/04/21 11:33:44;;;;;;;9.87;8.87;;;;;;;;;;5064734;28;24789;-51
2022/04/21 11:36:11;;;;;;;9.80;8.90;;;;;;;;;;5067542;28;24799;-51
2022/04/21 11:38:40;;;;;;;9.70;8.80;;;;;;;;;;5066786;28;24450;-50
2022/04/21 11:41:07;;;;;;;9.60;8.80;;;;;;;;;;5066992;28;24834;-50
2022/04/21 11:43:32;;;;;;;11.10;10.15;;;;;;;;;;5067081;28;24488;-52
2022/04/21 11:45:59;;;;;;;10.53;9.53;;;;;;;;;;5067016;28;24869;-51
2022/04/21 11:48:38;;;;;;;9.85;8.95;;;;;;;;;;5067273;28;24401;-51
2022/04/21 11:51:03;;;;;;;9.80;8.90;;;;;;;;;;5067308;28;24391;-51
2022/04/21 11:53:30;;;;;;;9.82;9.02;;;;;;;;;;5066286;28;24475;-52
2022/04/21 11:55:55;;;;;;;10.00;9.20;;;;;;;;;;5066962;28;24426;-51
2022/04/21 11:58:27;;;;;;;10.00;9.00;;;;;;;;;;5067072;28;24414;-51
2022/04/21 12:06:29;;;;;;;10.07;9.18;;;;;;;;;;5066351;28;24452;-51
2022/04/21 12:08:55;;;;;;;8.43;7.53;;;;;;;;;;5066508;28;24386;-51
2022/04/21 12:11:22;;;;;;;9.40;8.50;;;;;;;;;;5067008;28;24406;-51
2022/04/21 12:13:48;;;;;;;8.27;7.57;;;;;;;;;;5066214;28;24926;-51
2022/04/21 12:16:36;;;;;;;7.20;6.60;;;;;;;;;;5066690;28;24928;-51
2022/04/21 12:19:10;;;;;;;6.53;6.00;;;;;;;;;;5066864;28;24399;-51
2022/04/21 12:21:36;;;;;;;7.60;6.90;;;;;;;;;;5066403;28;24971;-51
2022/04/21 12:24:17;;;;;;;8.43;7.63;;;;;;;;;;5085832;28;24559;-51
2022/04/21 12:26:47;;;;;;;7.50;6.80;;;;;;;;;;5086638;28;24386;-51
2022/04/21 12:29:12;;;;;;;7.72;7.10;;;;;;;;;;5086626;28;24534;-52
2022/04/21 12:31:46;;;;;;;7.80;7.10;;;;;;;;;;5086982;28;24428;-51
2022/04/21 12:34:12;;;;;;;7.45;6.85;;;;;;;;;;5086555;28;24494;-52
2022/04/21 12:36:37;;;;;;;7.50;6.80;;;;;;;;;;5086539;28;24498;-51
2022/04/21 12:39:02;;;;;;;7.60;6.90;;;;;;;;;;5086605;28;24421;-51
2022/04/21 12:41:28;;;;;;;7.00;6.40;;;;;;;;;;5086420;28;24690;-51
2022/04/21 12:43:53;;;;;;;7.30;6.70;;;;;;;;;;5086419;28;24382;-52
2022/04/21 12:46:19;;;;;;;7.30;6.60;;;;;;;;;;5087022;28;24395;-51
2022/04/21 12:48:50;;;;;;;7.60;7.00;;;;;;;;;;5086675;28;24497;-51
2022/04/21 12:51:22;;;;;;;7.85;7.15;;;;;;;;;;5086500;28;24927;-52
2022/04/21 12:53:57;;;;;;;7.90;7.20;;;;;;;;;;5085917;28;24426;-52
2022/04/21 12:56:31;;;;;;;7.05;6.45;;;;;;;;;;5086573;28;24397;-52
2022/04/21 12:58:57;;;;;;;8.30;7.40;;;;;;;;;;5086556;28;24550;-51
2022/04/21 13:01:22;;;;;;;8.00;7.30;;;;;;;;;;5086526;28;24437;-52
2022/04/21 13:03:47;;;;;;;8.60;7.80;;;;;;;;;;5086018;28;24425;-57
2022/04/21 13:06:12;;;;;;;8.35;7.65;;;;;;;;;;5086473;28;24497;-52
2022/04/21 13:08:37;;;;;;;8.82;7.97;;;;;;;;;;5086221;28;24397;-52
2022/04/21 13:11:02;;;;;;;10.53;8.70;;;;;;;;;;5086190;28;24421;-51
2022/04/21 13:13:29;;;;;;;10.13;9.13;;;;;;;;;;5085834;28;24410;-52
2022/04/21 13:15:55;;;;;;;9.35;8.45;;;;;;;;;;5086172;28;25009;-51
2022/04/21 13:18:20;;;;;;;10.73;9.73;;;;;;;;;;5087968;28;24458;-51
2022/04/21 13:23:29;;;;;;;11.30;10.10;;;;;;;;;;5074378;28;24452;-51
2022/04/21 13:25:55;;;;;;;12.23;10.90;;;;;;;;;;5069633;28;24402;-52
2022/04/21 13:28:20;;;;;;;11.20;10.10;;;;;;;;;;5069424;28;24941;-52
2022/04/21 13:30:45;;;;;;;12.00;9.97;;;;;;;;;;5069658;28;24985;-51
2022/04/21 13:33:22;;;;;;;12.15;10.85;;;;;;;;;;5069010;28;24754;-51
2022/04/21 13:35:51;;;;;;;12.30;11.00;;;;;;;;;;5069006;28;24399;-51
2022/04/21 13:38:17;;;;;;;10.90;9.77;;;;;;;;;;5069450;28;24391;-52
2022/04/21 13:40:43;;;;;;;13.50;11.18;;;;;;;;;;5069451;28;24761;-51
2022/04/21 13:43:08;;;;;;;11.30;10.10;;;;;;;;;;5068788;28;24451;-51
2022/04/21 13:45:36;;;;;;;11.40;10.20;;;;;;;;;;5069408;28;24772;-51
2022/04/21 13:48:01;;;;;;;11.02;9.43;;;;;;;;;;5068844;28;24446;-52
2022/04/21 13:50:27;;;;;;;11.23;10.03;;;;;;;;;;5069175;28;24963;-51
2022/04/21 13:52:53;;;;;;;10.90;9.80;;;;;;;;;;5068751;28;24781;-51
2022/04/21 13:55:18;;;;;;;10.93;9.83;;;;;;;;;;5069069;28;24969;-52
2022/04/21 13:57:43;;;;;;;10.70;9.60;;;;;;;;;;5068980;28;24390;-51
2022/04/21 14:00:08;;;;;;;10.60;9.50;;;;;;;;;;5068801;28;24891;-51
2022/04/21 14:02:34;;;;;;;10.50;9.43;;;;;;;;;;5068535;28;24425;-52
2022/04/21 14:04:59;;;;;;;10.80;9.70;;;;;;;;;;5068848;28;24919;-51
2022/04/21 14:07:24;;;;;;;10.30;9.30;;;;;;;;;;5068897;28;24399;-51
2022/04/21 14:09:49;;;;;;;9.80;8.90;;;;;;;;;;5068697;28;24474;-51
2022/04/21 14:12:14;;;;;;;10.07;9.07;;;;;;;;;;5068806;28;24722;-49
2022/04/21 14:14:39;;;;;;;10.30;9.30;;;;;;;;;;5068453;28;24448;-49
2022/04/21 14:17:05;;;;;;;11.17;9.97;;;;;;;;;;5068129;28;24391;-50
2022/04/21 14:19:31;;;;;;;10.65;8.80;;;;;;;;;;5068135;28;24405;-50
2022/04/21 14:21:56;;;;;;;10.85;9.25;;;;;;;;;;5068926;28;24391;-50
2022/04/21 14:24:22;;;;;;;9.93;8.93;;;;;;;;;;5088735;28;24402;-50
2022/04/21 14:26:47;;;;;;;9.80;8.80;;;;;;;;;;5088648;28;24398;-52
2022/04/21 14:29:13;;;;;;;10.10;9.00;;;;;;;;;;5087881;28;25052;-51
2022/04/21 14:31:38;;;;;;;10.60;8.60;;;;;;;;;;5088453;28;24497;-51
2022/04/21 14:34:03;;;;;;;11.30;9.40;;;;;;;;;;5088059;28;24486;-51
2022/04/21 14:36:29;;;;;;;11.60;10.30;;;;;;;;;;5088755;28;24736;-52
2022/04/21 14:44:22;;;;;;;11.40;10.20;;;;;;;;;;5087997;28;24385;-51
2022/04/21 14:46:48;;;;;;;11.60;10.40;;;;;;;;;;5088021;28;24387;-51
2022/04/21 14:49:14;;;;;;;10.40;9.40;;;;;;;;;;5088422;28;25045;-52
2022/04/21 14:51:40;;;;;;;10.55;9.27;;;;;;;;;;5088275;28;24382;-52
2022/04/21 14:54:05;;;;;;;13.70;10.60;;;;;;;;;;5087983;28;24806;-51
2022/04/21 14:56:32;;;;;;;10.93;9.83;;;;;;;;;;5088071;28;24391;-52
2022/04/21 14:58:57;;;;;;;10.63;9.40;;;;;;;;;;5087876;28;24961;-53
2022/04/21 15:01:23;;;;;;;10.47;9.47;;;;;;;;;;5087987;28;24460;-52
2022/04/21 15:03:48;;;;;;;11.67;10.17;;;;;;;;;;5087934;28;24490;-53
2022/04/21 15:06:13;;;;;;;11.23;9.57;;;;;;;;;;5088038;28;24401;-51
2022/04/21 15:08:38;;;;;;;11.30;10.10;;;;;;;;;;5087858;28;24427;-52
2022/04/21 15:11:04;;;;;;;10.10;9.07;;;;;;;;;;5087687;28;24394;-51
2022/04/21 15:13:30;;;;;;;10.80;9.70;;;;;;;;;;5087162;28;24413;-51
2022/04/21 15:15:55;;;;;;;10.75;8.93;;;;;;;;;;5087890;28;24655;-51
2022/04/21 15:18:20;;;;;;;9.80;8.63;;;;;;;;;;5087841;28;24493;-52